createdAt,value
2022-08-31T00:00:03.404Z,16.21
2022-08-31T00:05:03.458Z,16.32
2022-08-31T00:10:02.422Z,16.39
2022-08-31T00:15:03.130Z,16.44
2022-08-31T00:20:02.764Z,16.47
2022-08-31T00:25:02.398Z,16.45
2022-08-31T00:30:03.066Z,16.37
2022-08-31T00:35:02.554Z,16.28
2022-08-31T00:40:02.741Z,16.17
2022-08-31T00:45:02.531Z,16.11
2022-08-31T00:50:03.128Z,16.03
2022-08-31T00:55:03.996Z,15.99
2022-08-31T01:00:05.637Z,15.94
2022-08-31T01:05:02.737Z,15.89
2022-08-31T01:10:02.647Z,15.84
2022-08-31T01:15:03.239Z,15.77
2022-08-31T01:20:02.691Z,15.76
2022-08-31T01:25:02.409Z,15.74
2022-08-31T01:30:03.069Z,15.72
2022-08-31T01:35:02.688Z,15.83
2022-08-31T01:40:03.453Z,15.83
2022-08-31T01:45:02.920Z,15.75
2022-08-31T01:50:02.325Z,15.65
2022-08-31T01:55:04.334Z,15.59
2022-08-31T02:00:02.776Z,15.53
2022-08-31T02:05:02.642Z,15.44
2022-08-31T02:10:03.264Z,15.3
2022-08-31T02:15:02.714Z,15.24
2022-08-31T02:20:02.399Z,15.21
2022-08-31T02:25:03.223Z,15.14
2022-08-31T02:30:02.773Z,15.1
2022-08-31T02:35:02.370Z,14.99
2022-08-31T02:40:04.816Z,14.87
2022-08-31T02:45:02.876Z,14.79
2022-08-31T02:50:02.496Z,14.75
2022-08-31T02:55:04.543Z,14.69
2022-08-31T03:00:02.694Z,14.61
2022-08-31T03:05:03.292Z,14.52
2022-08-31T03:10:02.751Z,14.38
2022-08-31T03:15:03.292Z,14.29
2022-08-31T03:20:02.804Z,14.17
2022-08-31T03:25:02.395Z,14.04
2022-08-31T03:30:03.147Z,13.97
2022-08-31T03:35:02.702Z,13.9
2022-08-31T03:40:03.333Z,13.81
2022-08-31T03:45:02.570Z,13.74
2022-08-31T03:50:03.128Z,13.71
2022-08-31T03:55:04.006Z,13.68
2022-08-31T04:00:03.320Z,13.62
2022-08-31T04:05:02.995Z,13.58
2022-08-31T04:10:02.646Z,13.54
2022-08-31T04:15:03.544Z,13.55
2022-08-31T04:20:02.723Z,13.47
2022-08-31T04:25:02.426Z,13.36
2022-08-31T04:30:03.082Z,13.3
2022-08-31T04:35:02.665Z,13.31
2022-08-31T04:40:03.876Z,13.31
2022-08-31T04:45:02.605Z,13.34
2022-08-31T04:50:03.239Z,13.4
2022-08-31T04:55:03.719Z,13.53
2022-08-31T05:00:02.466Z,13.68
2022-08-31T05:05:03.287Z,13.82
2022-08-31T05:10:02.848Z,13.88
2022-08-31T05:15:03.276Z,13.94
2022-08-31T05:20:02.749Z,14.26
2022-08-31T05:25:02.613Z,14.6
2022-08-31T05:30:03.014Z,15.55
2022-08-31T05:35:02.860Z,16.96
2022-08-31T05:40:03.489Z,17.44
2022-08-31T05:45:02.797Z,17.91
2022-08-31T05:50:08.768Z,17.8
2022-08-31T05:55:04.641Z,17.88
2022-08-31T06:00:02.845Z,18.98
2022-08-31T06:05:03.289Z,18.14
2022-08-31T06:10:03.522Z,16.4
2022-08-31T06:15:02.761Z,16.49
2022-08-31T06:20:03.378Z,16.44
2022-08-31T06:25:02.953Z,17.1
2022-08-31T06:30:07.284Z,17.87
2022-08-31T06:35:03.210Z,18.22
2022-08-31T06:40:02.453Z,17.62
2022-08-31T06:45:03.291Z,17.18
2022-08-31T06:50:02.688Z,17.4
2022-08-31T06:55:04.759Z,19.13
2022-08-31T07:00:04.238Z,17.82
2022-08-31T07:05:02.989Z,17.79
2022-08-31T07:10:02.787Z,18.08
2022-08-31T07:15:03.123Z,18.56
2022-08-31T07:20:02.927Z,18.96
2022-08-31T07:25:03.540Z,20.06
2022-08-31T07:30:03.484Z,19.54
2022-08-31T07:35:03.026Z,20.51
2022-08-31T07:40:09.051Z,21.28
2022-08-31T07:45:02.798Z,21.19
2022-08-31T07:50:03.560Z,20.42
2022-08-31T07:55:04.105Z,20.43
2022-08-31T08:00:03.413Z,20.12
2022-08-31T08:05:02.729Z,19.98
2022-08-31T08:10:02.413Z,21.09
2022-08-31T08:15:03.386Z,21.75
2022-08-31T08:20:04.686Z,21.25
2022-08-31T08:25:02.355Z,20.59
2022-08-31T08:30:03.007Z,20.27
2022-08-31T08:35:02.689Z,19.92
2022-08-31T08:40:03.529Z,20.45
2022-08-31T08:45:02.590Z,20.49
2022-08-31T08:50:03.200Z,21.21
2022-08-31T08:55:04.155Z,21.57
2022-08-31T09:00:02.700Z,21.7
2022-08-31T09:05:03.235Z,22.66
2022-08-31T09:10:03.281Z,22.53
2022-08-31T09:15:03.490Z,22.76
2022-08-31T09:20:02.896Z,25.13
2022-08-31T09:25:02.800Z,24.83
2022-08-31T09:30:03.297Z,23.71
2022-08-31T09:35:02.984Z,23.49
2022-08-31T09:40:07.695Z,21.22
2022-08-31T09:45:03.283Z,23.37
2022-08-31T09:50:04.072Z,24.36
2022-08-31T09:55:04.009Z,23.63
2022-08-31T10:00:02.979Z,22.48
2022-08-31T10:05:03.805Z,21.93
2022-08-31T10:10:03.795Z,22.19
2022-08-31T10:15:03.035Z,21.52
2022-08-31T10:20:02.627Z,21.72
2022-08-31T10:25:03.259Z,21.99
2022-08-31T10:30:02.794Z,21.75
2022-08-31T10:35:03.212Z,22.39
2022-08-31T10:40:02.975Z,23.42
2022-08-31T10:45:02.446Z,25.21
2022-08-31T10:50:03.068Z,24.42
2022-08-31T10:55:04.064Z,24.29
2022-08-31T11:00:02.543Z,23.1
2022-08-31T11:05:03.192Z,24.35
2022-08-31T11:10:02.608Z,24.81
2022-08-31T11:15:03.369Z,26.01
2022-08-31T11:20:02.975Z,25.61
2022-08-31T11:25:02.660Z,26.06
2022-08-31T11:30:02.705Z,25.58
2022-08-31T11:35:02.376Z,24.67
2022-08-31T11:40:03.710Z,23.41
2022-08-31T11:45:03.875Z,24.76
2022-08-31T11:50:02.769Z,25.34
2022-08-31T11:55:04.227Z,25.53
2022-08-31T12:00:02.792Z,25.33
2022-08-31T12:05:03.550Z,25.05
2022-08-31T12:10:02.648Z,26.26
2022-08-31T12:15:03.293Z,26.2
2022-08-31T12:20:03.245Z,26.31
2022-08-31T12:25:02.855Z,26.21
2022-08-31T12:30:03.254Z,26.28
2022-08-31T12:35:03.023Z,26.78
2022-08-31T12:40:02.917Z,26.98
2022-08-31T12:45:03.395Z,26.08
2022-08-31T12:50:02.841Z,26.31
2022-08-31T12:55:09.485Z,26.52
2022-08-31T13:00:02.916Z,25.38
2022-08-31T13:05:03.137Z,26.57
2022-08-31T13:10:02.764Z,27.64
2022-08-31T13:15:02.450Z,26.77
2022-08-31T13:20:03.467Z,25.36
2022-08-31T13:25:02.414Z,25.39
2022-08-31T13:30:06.469Z,25.95
2022-08-31T13:35:02.713Z,26.24
2022-08-31T13:40:03.429Z,25.47
2022-08-31T13:45:02.460Z,25.42
2022-08-31T13:50:03.486Z,25.47
2022-08-31T13:55:03.861Z,25.54
2022-08-31T14:00:02.522Z,25.64
2022-08-31T14:05:03.132Z,25.58
2022-08-31T14:10:02.653Z,25.72
2022-08-31T14:15:03.068Z,25.24
2022-08-31T14:20:02.496Z,25.73
2022-08-31T14:25:03.432Z,26.1
2022-08-31T14:30:03.071Z,26.09
2022-08-31T14:35:02.689Z,26
2022-08-31T14:40:08.882Z,26.41
2022-08-31T14:45:02.682Z,26.74
2022-08-31T14:50:03.282Z,25.3
2022-08-31T14:55:03.904Z,25.45
2022-08-31T15:00:02.499Z,25.59
2022-08-31T15:05:02.340Z,26.88
2022-08-31T15:10:02.993Z,27.08
2022-08-31T15:15:02.959Z,26.22
2022-08-31T15:20:03.253Z,27.12
2022-08-31T15:25:02.984Z,25.66
2022-08-31T15:30:03.302Z,26.38
2022-08-31T15:35:02.763Z,26.3
2022-08-31T15:40:04.018Z,26.24
2022-08-31T15:45:03.557Z,25.46
2022-08-31T15:50:02.951Z,24.69
2022-08-31T15:55:03.627Z,24.65
2022-08-31T16:00:03.611Z,24.43
2022-08-31T16:05:02.683Z,24.05
2022-08-31T16:10:02.783Z,23.89
2022-08-31T16:15:03.435Z,23.59
2022-08-31T16:20:03.740Z,23.5
2022-08-31T16:25:03.244Z,22.88
2022-08-31T16:30:02.906Z,22.18
2022-08-31T16:35:02.579Z,21.84
2022-08-31T16:40:03.260Z,21.63
2022-08-31T16:45:03.170Z,21.44
2022-08-31T16:50:02.670Z,21.27
2022-08-31T16:55:04.397Z,21.05
2022-08-31T17:00:03.037Z,20.85
2022-08-31T17:05:02.511Z,20.67
2022-08-31T17:10:02.348Z,20.5
2022-08-31T17:15:03.157Z,20.22
2022-08-31T17:20:05.240Z,19.96
2022-08-31T17:25:02.749Z,19.82
2022-08-31T17:30:03.075Z,19.7
2022-08-31T17:35:02.698Z,19.63
2022-08-31T17:40:03.830Z,19.42
2022-08-31T17:45:02.776Z,19.2
2022-08-31T17:50:02.354Z,19.05
2022-08-31T17:55:04.372Z,18.73
2022-08-31T18:00:02.751Z,18.63
2022-08-31T18:05:02.601Z,18.48
2022-08-31T18:10:03.021Z,18.29
2022-08-31T18:15:02.652Z,18.01
2022-08-31T18:20:03.301Z,17.73
2022-08-31T18:25:02.697Z,17.54
2022-08-31T18:30:02.323Z,17.61
2022-08-31T18:35:03.151Z,17.69
2022-08-31T18:40:08.427Z,17.67
2022-08-31T18:45:02.913Z,17.48
2022-08-31T18:50:02.417Z,17.34
2022-08-31T18:55:04.256Z,17.07
2022-08-31T19:00:02.765Z,17
2022-08-31T19:05:02.970Z,16.73
2022-08-31T19:10:02.669Z,16.48
2022-08-31T19:15:03.332Z,16.23
2022-08-31T19:20:04.100Z,15.99
2022-08-31T19:25:02.452Z,15.98
2022-08-31T19:30:03.354Z,16.18
2022-08-31T19:35:02.718Z,16.14
2022-08-31T19:40:05.772Z,16.11
2022-08-31T19:45:25.005Z,16.01
2022-08-31T19:50:03.075Z,15.89
2022-08-31T19:55:09.969Z,15.87
2022-08-31T20:00:02.373Z,15.98
2022-08-31T20:05:03.322Z,15.93
2022-08-31T20:10:02.941Z,15.87
2022-08-31T20:15:03.238Z,15.9
2022-08-31T20:20:02.995Z,15.92
2022-08-31T20:25:02.602Z,16.02
2022-08-31T20:30:02.924Z,15.91
2022-08-31T20:35:02.697Z,15.78
2022-08-31T20:40:03.093Z,15.6
2022-08-31T20:45:03.160Z,15.69
2022-08-31T20:50:02.802Z,15.74
2022-08-31T20:55:03.591Z,15.62
2022-08-31T21:00:03.628Z,15.48
2022-08-31T21:05:37.751Z,15.41
2022-08-31T21:10:02.867Z,15.4
2022-08-31T21:15:02.663Z,15.25
2022-08-31T21:20:02.387Z,15.19
2022-08-31T21:25:03.289Z,15.06
2022-08-31T21:30:02.529Z,15.02
2022-08-31T21:35:03.248Z,15.05
2022-08-31T21:40:03.014Z,15.1
2022-08-31T21:45:02.681Z,15.15
2022-08-31T21:50:02.347Z,15.19
2022-08-31T21:55:04.282Z,15.31
2022-08-31T22:00:03.025Z,15.26
2022-08-31T22:05:09.734Z,15.21
2022-08-31T22:10:02.838Z,15.2
2022-08-31T22:15:03.213Z,15.09
2022-08-31T22:20:02.757Z,14.99
2022-08-31T22:25:03.371Z,14.9
2022-08-31T22:30:03.359Z,14.79
2022-08-31T22:35:02.975Z,14.79
2022-08-31T22:40:03.037Z,15.06
2022-08-31T22:45:03.135Z,15.16
2022-08-31T22:50:02.843Z,14.99
2022-08-31T22:55:04.225Z,14.8
2022-08-31T23:00:02.802Z,14.65
2022-08-31T23:05:06.309Z,14.63
2022-08-31T23:10:03.295Z,14.59
2022-08-31T23:15:02.772Z,14.45
2022-08-31T23:20:02.330Z,14.39
2022-08-31T23:25:03.100Z,14.37
2022-08-31T23:30:02.451Z,14.42
2022-08-31T23:35:02.332Z,14.43
2022-08-31T23:40:03.054Z,14.45
2022-08-31T23:45:02.622Z,14.5
2022-08-31T23:50:04.799Z,14.51
2022-08-31T23:55:03.739Z,14.49
